Language selection

My Weather Profile Weather Topics  | 

Resolution - eastern half: Past 24 Hour Conditions

 

Cartwright Airport

07:00 AM AST 30 January 2023
Disclaimer

This table is a summary of hourly weather conditions for the past 24 hours.
Please note that these observations might not always be representative of weather conditions over their associated marine area.

Date / Time
(AST)
Wind(knots) Conditions Visibility(km) Pressure(kPa) Air tempC) Relative humidity(%) Dew pointC) Wind Chill
30 January 2023
7:00 SSW 5 Cloudy 16 102.4 -22 66 -27 -29
6:00 SSW 5 Mostly Cloudy 16 102.4 -23 69 -27 -30
5:00 SW 7 Cloudy 16 102.5 -23 66 -27 -31
4:00 S 4 gust 15 Mostly Cloudy 16 102.5 -23 64 -28 -30
3:00 SW 8 gust 16 Cloudy 16 102.5 -22 66 -27 -32
2:00 SSW 5 Mostly Cloudy 16 102.4 -22 63 -27 -29
1:00 SSW 10 gust 19 Clear 16 102.4 -22 65 -27 -33
0:00 SSW 11 gust 17 Clear 16 102.4 -22 63 -27 -33
29 January 2023
23:00 SW 11 gust 19 Clear 16 102.3 -21 61 -27 -32
22:00 SE 4 gust 20 Clear 16 102.3 -21 60 -27 -27
21:00 WSW 13 gust 25 Clear 16 102.2 -20 59 -26 -31
20:00 W 17 gust 25 Clear 16 102.1 -20 59 -26 -33
19:00 WSW 18 gust 25 Clear 16 102.0 -20 65 -24 -32
18:00 SW 10 gust 17 Mostly Cloudy 16 101.9 -20 65 -24 -29
17:00 W 17 gust 29 Haze 8 101.8 -18 63 -24 -31
16:00 W 14 gust 26 Haze 8 101.6 -17 62 -23 -28
15:00 WNW 21 gust 30 Light Snow 3 101.4 -17 65 -22 -29
14:00 W 13 gust 19 Light Snow 2 101.2 -16 73 -20 -27
13:00 WNW 16 gust 24 Snow 0.8 101.0 -16 78 -18 -27
12:00 WSW 15 gust 21 Light Snow 5 100.8 -13 77 -16 -23
11:00 NW 27 gust 41 Blowing Snow 1 100.5 -11 75 -15 -23
10:00 SW 5 Light Snow 4 100.5 -5 91 -6 -8
9:00 S 10 gust 15 Light Snow 16 100.4 -5 86 -7 -11
8:00 S 8 Light Snow 16 100.5 -6 86 -8 -11
7:00 S 8 Light Snow 2 100.7 -6 88 -8 -12

Zoom-in to make a selection

Map of Atlantic - Labrador marine weather areas Kangiqsualujjuaq Airport Cape Kakkiviak Cape Kiglapait Cartwright Airport CFB Goose Bay Hopedale Mary's Harbour Nain Airport Makkovik Airport Saglek Tukialik Bay
Legend:
buoy Buoy
land station Land Station

Atlantic - Labrador Area

Another Region

What we are doing

Date modified: